KGPI

Glacier Park International Airport

Kalispell, Montana, USA
METAR KGPI 170355Z 00000KT 10SM CLR M01/M03 A3040 RMK AO2 SLP319 T10061033
Observed Flight Rules
Oct-17 @ 03:55 UTC (an hour ago) Visual Flight Rules
Visibility Clouds
10 miles
  • Clear skies
Temperatures Readings
Current -1°C / 30°F
Dewpoint -3°C / 27°F
Humidity 86%
Altimeter 30.4" Hg
Pressure 1031.9 hPa
Elevation 908
METAR KGPI 170355Z 00000KT 10SM CLR M01/M03 A3040 RMK AO2 SLP319 T10061033
Observed Flight Rules
Oct-17 @ 03:55 UTC
(an hour ago)
VFR
Clouds
  • Clear skies
Temperature Dewpoint
-1°C / 30°F -3°C / 27°F
Humidity Altimeter Pressure
86% 30.4" Hg 1031.9 hPa